Time,TemperatureF,DewpointF,PressureIn,WindDirection,WindDirectionDegrees,WindSpeedMPH,WindSpeedGustMPH,Humidity,HourlyPrecipIn,Conditions,Clouds,dailyrainin,SoftwareType,DateUTC
2013-01-27 00:00:00,19.6,7.9,30.34,NNW,343,4.5,5.2,60,0.00,,---,0.00,VWS V14.01,2013-01-27 05:00:00,
2013-01-27 00:01:00,19.6,7.9,30.34,NNW,345,5.0,5.9,60,0.00,,---,0.00,VWS V14.01,2013-01-27 05:01:00,
2013-01-27 00:03:00,19.6,8.0,30.34,NNW,328,5.1,5.1,60,0.00,,---,0.00,VWS V14.01,2013-01-27 05:03:00,
2013-01-27 00:05:00,18.7,8.4,30.39,NW,318,2.9,8.9,63,0.00,,---,0.00,VWS V14.01,2013-01-27 05:05:00,
2013-01-27 00:08:00,19.3,7.8,30.34,NNW,345,4.9,5.3,60,0.00,,---,0.00,VWS V14.01,2013-01-27 05:08:00,
2013-01-27 00:13:00,19.2,7.8,30.34,North,359,5.1,5.5,60,0.00,,---,0.00,VWS V14.01,2013-01-27 05:13:00,
2013-01-27 00:18:00,19.3,8.0,30.34,NNW,342,6.0,6.0,61,0.00,,---,0.00,VWS V14.01,2013-01-27 05:18:00,
2013-01-27 00:23:00,19.2,8.0,30.34,NNW,342,5.3,8.0,61,0.00,,---,0.00,VWS V14.01,2013-01-27 05:23:00,
2013-01-27 00:28:00,19.4,8.2,30.34,North,350,5.3,8.0,61,0.00,,---,0.00,VWS V14.01,2013-01-27 05:28:00,
2013-01-27 00:32:00,18.5,8.1,30.39,NNW,335,4.1,8.9,63,0.00,,---,0.00,VWS V14.01,2013-01-27 05:32:00,
2013-01-27 00:33:00,18.7,7.7,30.34,NNW,339,4.8,8.0,62,0.00,,---,0.00,VWS V14.01,2013-01-27 05:33:00,
2013-01-27 00:37:00,18.4,7.4,30.34,North,353,6.2,8.0,62,0.00,,---,0.00,VWS V14.01,2013-01-27 05:37:00,
2013-01-27 00:42:00,19.3,8.1,30.34,North,357,5.3,8.3,61,0.00,,---,0.00,VWS V14.01,2013-01-27 05:42:00,
2013-01-27 00:47:00,18.9,7.8,30.35,NNW,342,5.1,8.3,61,0.00,,---,0.00,VWS V14.01,2013-01-27 05:47:00,
2013-01-27 00:52:00,19.1,7.9,30.34,North,350,7.1,8.3,61,0.00,,---,0.00,VWS V14.01,2013-01-27 05:52:00,
2013-01-27 00:57:00,19.1,8.0,30.35,North,359,4.7,8.3,61,0.00,,---,0.00,VWS V14.01,2013-01-27 05:57:00,
2013-01-27 01:02:00,18.7,7.6,30.35,NW,314,5.3,8.3,61,0.00,,---,0.00,VWS V14.01,2013-01-27 06:02:00,
2013-01-27 01:07:00,19.1,8.1,30.36,NNW,336,4.1,8.3,62,0.00,,---,0.00,VWS V14.01,2013-01-27 06:07:00,
2013-01-27 01:12:00,19.3,8.4,30.36,NNW,332,5.4,8.3,62,0.00,,---,0.00,VWS V14.01,2013-01-27 06:12:00,
2013-01-27 01:17:00,19.0,8.1,30.36,NNW,335,4.1,8.3,62,0.00,,---,0.00,VWS V14.01,2013-01-27 06:17:00,
2013-01-27 01:22:00,18.8,8.1,30.36,NNW,343,4.8,8.3,62,0.00,,---,0.00,VWS V14.01,2013-01-27 06:22:00,
2013-01-27 01:27:00,18.9,8.2,30.36,NW,318,3.5,8.3,62,0.00,,---,0.00,VWS V14.01,2013-01-27 06:27:00,
2013-01-27 01:32:00,19.2,8.6,30.36,NW,322,4.1,8.3,63,0.00,,---,0.00,VWS V14.01,2013-01-27 06:32:00,
2013-01-27 01:37:00,18.8,8.2,30.36,NNW,329,3.5,8.3,63,0.00,,---,0.00,VWS V14.01,2013-01-27 06:37:00,
2013-01-27 01:42:00,18.4,8.0,30.37,WNW,297,6.8,8.3,63,0.00,,---,0.00,VWS V14.01,2013-01-27 06:42:00,
2013-01-27 01:47:00,18.8,8.3,30.37,NNW,335,4.0,8.3,63,0.00,,---,0.00,VWS V14.01,2013-01-27 06:47:00,
2013-01-27 01:52:00,18.3,7.9,30.37,WNW,298,5.7,8.3,63,0.00,,---,0.00,VWS V14.01,2013-01-27 06:52:00,
2013-01-27 01:57:00,18.4,8.0,30.38,NW,308,5.3,8.3,63,0.00,,---,0.00,VWS V14.01,2013-01-27 06:57:00,
2013-01-27 02:02:00,18.9,8.5,30.38,NNW,328,4.6,8.3,63,0.00,,---,0.00,VWS V14.01,2013-01-27 07:02:00,
2013-01-27 02:07:00,19.0,8.6,30.38,NW,318,4.0,8.3,63,0.00,,---,0.00,VWS V14.01,2013-01-27 07:07:00,
2013-01-27 02:13:00,18.6,8.3,30.38,NW,326,6.7,8.3,63,0.00,,---,0.00,VWS V14.01,2013-01-27 07:13:00,
2013-01-27 02:18:00,19.0,8.6,30.38,NNW,330,3.0,8.9,63,0.00,,---,0.00,VWS V14.01,2013-01-27 07:18:00,
2013-01-27 02:23:00,18.9,8.5,30.39,NW,323,6.4,8.9,63,0.00,,---,0.00,VWS V14.01,2013-01-27 07:23:00,
2013-01-27 02:28:00,18.6,8.2,30.39,NNW,329,5.6,8.9,63,0.00,,---,0.00,VWS V14.01,2013-01-27 07:28:00,
2013-01-27 02:33:00,18.6,8.2,30.39,NW,308,5.7,8.9,63,0.00,,---,0.00,VWS V14.01,2013-01-27 07:33:00,
2013-01-27 02:38:00,18.9,8.5,30.39,NW,307,5.2,8.9,63,0.00,,---,0.00,VWS V14.01,2013-01-27 07:38:00,
2013-01-27 02:40:00,17.9,7.8,30.39,NW,304,5.2,8.9,64,0.00,,---,0.00,VWS V14.01,2013-01-27 07:40:00,
2013-01-27 02:43:00,18.8,8.4,30.39,NW,316,3.3,8.9,63,0.00,,---,0.00,VWS V14.01,2013-01-27 07:43:00,
2013-01-27 02:48:00,18.2,8.1,30.39,WNW,294,4.4,8.9,64,0.00,,---,0.00,VWS V14.01,2013-01-27 07:48:00,
2013-01-27 02:53:00,18.5,8.4,30.39,WNW,297,4.2,8.9,64,0.00,,---,0.00,VWS V14.01,2013-01-27 07:53:00,
2013-01-27 02:58:00,18.2,8.1,30.39,NW,321,4.8,8.9,64,0.00,,---,0.00,VWS V14.01,2013-01-27 07:58:00,
2013-01-27 03:03:00,17.8,7.8,30.39,NW,318,3.4,8.9,64,0.00,,---,0.00,VWS V14.01,2013-01-27 08:03:00,
2013-01-27 03:08:00,17.9,7.9,30.39,WNW,294,5.9,8.9,64,0.00,,---,0.00,VWS V14.01,2013-01-27 08:08:00,
2013-01-27 03:13:00,17.8,7.9,30.39,NW,321,6.6,8.9,64,0.00,,---,0.00,VWS V14.01,2013-01-27 08:13:00,
2013-01-27 03:18:00,18.0,8.1,30.39,NNW,340,5.9,8.9,65,0.00,,---,0.00,VWS V14.01,2013-01-27 08:18:00,
2013-01-27 03:23:00,17.8,8.1,30.39,NW,318,4.8,8.9,65,0.00,,---,0.00,VWS V14.01,2013-01-27 08:23:00,
2013-01-27 03:28:00,17.9,8.3,30.38,NNW,333,2.9,8.9,65,0.00,,---,0.00,VWS V14.01,2013-01-27 08:28:00,
2013-01-27 03:33:00,17.4,7.8,30.38,NW,311,4.7,8.9,66,0.00,,---,0.00,VWS V14.01,2013-01-27 08:33:00,
2013-01-27 03:38:00,17.6,8.1,30.39,NW,308,4.3,8.9,66,0.00,,---,0.00,VWS V14.01,2013-01-27 08:38:00,
2013-01-27 03:43:00,17.7,8.2,30.39,NW,314,4.5,8.9,66,0.00,,---,0.00,VWS V14.01,2013-01-27 08:43:00,
2013-01-27 03:48:00,17.7,8.3,30.39,NNW,342,3.8,8.9,66,0.00,,---,0.00,VWS V14.01,2013-01-27 08:48:00,
2013-01-27 03:53:00,17.8,8.4,30.39,WNW,301,2.7,8.9,66,62.93,,---,0.00,VWS V14.01,2013-01-27 08:53:00,
2013-01-27 03:57:00,17.3,8.0,30.39,NNW,338,4.7,8.9,66,0.00,,---,0.00,VWS V14.01,2013-01-27 08:57:00,
2013-01-27 04:02:00,17.4,8.1,30.39,NW,305,5.4,8.9,66,0.00,,---,0.00,VWS V14.01,2013-01-27 09:02:00,
2013-01-27 04:07:00,16.9,7.7,30.39,NNW,335,6.8,8.9,66,0.00,,---,0.00,VWS V14.01,2013-01-27 09:07:00,
2013-01-27 04:12:00,17.3,8.2,30.39,NNW,330,5.7,8.9,67,0.00,,---,0.00,VWS V14.01,2013-01-27 09:12:00,
2013-01-27 04:17:00,16.9,7.9,30.39,NNW,336,6.0,9.8,67,62.45,,---,0.00,VWS V14.01,2013-01-27 09:17:00,
2013-01-27 04:22:00,16.2,7.4,30.39,NNW,339,6.6,9.8,68,0.00,,---,0.00,VWS V14.01,2013-01-27 09:22:00,
2013-01-27 04:27:00,16.4,7.8,30.39,NW,311,8.0,9.8,68,0.00,,---,0.00,VWS V14.01,2013-01-27 09:27:00,
2013-01-27 04:32:00,16.5,8.0,30.39,NW,314,7.7,9.8,69,62.13,,---,0.00,VWS V14.01,2013-01-27 09:32:00,
2013-01-27 04:37:00,16.5,8.1,30.39,WNW,298,7.3,9.8,69,0.00,,---,0.00,VWS V14.01,2013-01-27 09:37:00,
2013-01-27 04:42:00,16.7,8.3,30.39,NW,322,6.1,9.8,69,0.00,,---,0.00,VWS V14.01,2013-01-27 09:42:00,
2013-01-27 04:47:00,17.5,9.1,30.39,NW,315,5.0,9.8,69,0.00,,---,0.00,VWS V14.01,2013-01-27 09:47:00,
2013-01-27 04:52:00,16.6,8.1,30.39,WNW,298,8.1,10.3,69,0.00,,---,0.00,VWS V14.01,2013-01-27 09:52:00,
2013-01-27 04:57:00,16.8,8.2,30.39,WNW,295,8.0,10.8,68,0.00,,---,0.00,VWS V14.01,2013-01-27 09:57:00,
2013-01-27 05:02:00,17.2,8.5,30.39,NW,311,7.3,10.8,68,0.00,,---,0.00,VWS V14.01,2013-01-27 10:02:00,
2013-01-27 05:07:00,17.0,8.2,30.39,NW,304,8.6,9.5,68,0.00,,---,0.00,VWS V14.01,2013-01-27 10:07:00,
2013-01-27 05:12:00,18.1,9.2,30.40,NW,326,3.9,8.4,68,0.00,,---,0.00,VWS V14.01,2013-01-27 10:12:00,
2013-01-27 05:16:00,18.2,8.4,30.42,NW,309,4.6,6.3,65,0.00,,---,0.00,VWS V14.01,2013-01-27 10:16:00,
2013-01-27 05:17:00,17.6,8.6,30.40,NW,316,5.0,12.1,67,0.00,,---,0.00,VWS V14.01,2013-01-27 10:17:00,
2013-01-27 05:22:00,17.4,8.2,30.40,NW,315,8.1,8.1,67,0.00,,---,0.00,VWS V14.01,2013-01-27 10:22:00,
2013-01-27 05:27:00,17.4,8.2,30.41,WNW,298,6.0,7.2,66,0.00,,---,0.00,VWS V14.01,2013-01-27 10:27:00,
2013-01-27 05:32:00,18.0,8.6,30.41,NW,322,3.6,6.8,66,0.00,,---,0.00,VWS V14.01,2013-01-27 10:32:00,
2013-01-27 05:37:00,17.8,8.3,30.41,NW,315,2.9,5.2,66,0.00,,---,0.00,VWS V14.01,2013-01-27 10:37:00,
2013-01-27 05:42:00,18.0,8.4,30.41,WNW,300,2.9,6.0,66,0.00,,---,0.00,VWS V14.01,2013-01-27 10:42:00,
2013-01-27 05:47:00,17.6,8.0,30.41,NW,325,2.6,4.5,65,0.00,,---,0.00,VWS V14.01,2013-01-27 10:47:00,
2013-01-27 05:52:00,18.6,8.9,30.41,NW,318,2.9,6.3,65,0.00,,---,0.00,VWS V14.01,2013-01-27 10:52:00,
2013-01-27 05:53:00,24.9,14.1,30.44,WNW,290,0.0,0.0,63,0.00,,---,0.00,VWS V14.01,2013-01-27 10:53:00,
2013-01-27 05:57:00,18.4,8.6,30.41,WNW,292,1.7,4.7,65,0.00,,---,0.00,VWS V14.01,2013-01-27 10:57:00,
2013-01-27 06:02:00,18.3,8.6,30.42,NW,319,4.5,5.3,65,0.00,,---,0.00,VWS V14.01,2013-01-27 11:02:00,
2013-01-27 06:07:00,17.9,8.1,30.42,WNW,302,4.8,5.6,65,0.00,,---,0.00,VWS V14.01,2013-01-27 11:07:00,
2013-01-27 06:12:00,18.2,8.4,30.42,NNW,330,5.3,7.3,65,0.00,,---,0.00,VWS V14.01,2013-01-27 11:12:00,
2013-01-27 06:17:00,18.4,8.6,30.42,NW,312,6.3,7.8,65,0.00,,---,0.00,VWS V14.01,2013-01-27 11:17:00,
2013-01-27 06:22:00,17.6,7.7,30.41,WNW,300,8.9,11.4,65,0.00,,---,0.00,VWS V14.01,2013-01-27 11:22:00,
2013-01-27 06:27:00,18.6,8.5,30.42,NW,309,4.3,6.2,64,0.00,,---,0.00,VWS V14.01,2013-01-27 11:27:00,
2013-01-27 06:32:00,18.0,8.0,30.42,NNW,336,4.5,5.8,64,0.00,,---,0.00,VWS V14.01,2013-01-27 11:32:00,
2013-01-27 06:37:00,18.3,8.4,30.42,NW,314,4.5,8.3,64,0.00,,---,0.00,VWS V14.01,2013-01-27 11:37:00,
2013-01-27 06:42:00,18.3,8.4,30.42,North,359,5.8,7.8,65,0.00,,---,0.00,VWS V14.01,2013-01-27 11:42:00,
2013-01-27 06:47:00,18.3,8.4,30.42,NW,322,6.5,8.4,65,0.00,,---,0.00,VWS V14.01,2013-01-27 11:47:00,
2013-01-27 06:52:00,17.6,7.6,30.42,NNW,343,7.4,9.3,64,0.00,,---,0.00,VWS V14.01,2013-01-27 11:52:00,
2013-01-27 06:57:00,19.2,9.0,30.42,NNE,13,2.6,8.1,64,0.00,,---,0.00,VWS V14.01,2013-01-27 11:57:00,
2013-01-27 07:02:00,18.4,8.3,30.43,NNW,335,5.5,6.8,64,0.00,,---,0.00,VWS V14.01,2013-01-27 12:02:00,
2013-01-27 07:07:00,17.9,7.8,30.43,NNW,340,3.4,6.2,64,0.00,,---,0.00,VWS V14.01,2013-01-27 12:07:00,
2013-01-27 07:12:00,17.9,7.9,30.43,North,352,4.3,5.3,64,0.00,,---,0.00,VWS V14.01,2013-01-27 12:12:00,
2013-01-27 07:17:00,17.9,7.9,30.43,NNW,328,5.2,7.5,64,0.00,,---,0.00,VWS V14.01,2013-01-27 12:17:00,
2013-01-27 07:22:00,17.8,7.9,30.44,NNW,342,7.1,7.6,65,0.00,,---,0.00,VWS V14.01,2013-01-27 12:22:00,
2013-01-27 07:27:00,17.9,8.1,30.44,North,1,5.6,5.7,65,0.00,,---,0.00,VWS V14.01,2013-01-27 12:27:00,
2013-01-27 07:32:00,18.5,8.8,30.44,NW,305,3.3,4.9,65,0.00,,---,0.00,VWS V14.01,2013-01-27 12:32:00,
2013-01-27 07:37:00,18.7,8.9,30.45,NNW,340,4.9,6.6,65,0.00,,---,0.00,VWS V14.01,2013-01-27 12:37:00,
2013-01-27 07:42:00,18.1,8.4,30.45,NW,326,4.8,6.3,65,0.00,,---,0.00,VWS V14.01,2013-01-27 12:42:00,
2013-01-27 07:47:00,18.9,9.1,30.45,NW,311,4.7,7.3,65,0.00,,---,0.00,VWS V14.01,2013-01-27 12:47:00,
2013-01-27 07:52:00,18.9,9.1,30.45,South,186,7.8,13.6,65,0.00,,---,0.00,VWS V14.01,2013-01-27 12:52:00,
2013-01-27 07:57:00,19.6,9.7,30.45,WNW,292,5.5,9.6,65,0.00,,---,0.00,VWS V14.01,2013-01-27 12:57:00,
2013-01-27 08:02:00,19.4,9.4,30.46,NW,307,6.5,11.1,64,42.66,,---,0.00,VWS V14.01,2013-01-27 13:02:00,
2013-01-27 08:07:00,19.1,9.0,30.46,NW,319,10.7,12.9,64,0.00,,---,0.00,VWS V14.01,2013-01-27 13:07:00,
2013-01-27 08:12:00,19.3,9.1,30.46,NW,308,11.7,12.6,64,0.00,,---,0.00,VWS V14.01,2013-01-27 13:12:00,
2013-01-27 08:17:00,19.8,9.5,30.46,NW,311,11.8,13.0,64,0.00,,---,0.00,VWS V14.01,2013-01-27 13:17:00,
2013-01-27 08:22:00,19.4,9.1,30.46,NW,311,11.6,16.3,64,0.00,,---,0.00,VWS V14.01,2013-01-27 13:22:00,
2013-01-27 08:27:00,20.2,10.0,30.46,NW,305,6.0,9.3,64,0.00,,---,0.00,VWS V14.01,2013-01-27 13:27:00,
2013-01-27 08:32:00,20.1,10.0,30.46,WNW,295,6.0,9.6,64,0.00,,---,0.00,VWS V14.01,2013-01-27 13:32:00,
2013-01-27 08:37:00,20.4,10.3,30.46,NW,312,5.8,6.3,64,42.66,,---,0.00,VWS V14.01,2013-01-27 13:37:00,
2013-01-27 08:42:00,20.0,9.8,30.46,NNW,329,9.0,12.2,64,19.83,,---,0.00,VWS V14.01,2013-01-27 13:42:00,
2013-01-27 08:47:00,21.0,10.8,30.46,NW,304,12.2,12.2,64,0.00,,---,0.00,VWS V14.01,2013-01-27 13:47:00,
2013-01-27 08:52:00,21.1,10.9,30.46,WNW,283,7.5,9.1,64,0.00,,---,0.00,VWS V14.01,2013-01-27 13:52:00,
2013-01-27 08:57:00,20.8,10.5,30.46,WNW,301,8.8,13.0,64,0.00,,---,0.00,VWS V14.01,2013-01-27 13:57:00,
2013-01-27 09:02:00,21.4,11.0,30.46,WNW,301,7.3,12.4,64,42.66,,---,0.00,VWS V14.01,2013-01-27 14:02:00,
2013-01-27 09:07:00,21.6,11.3,30.46,NW,305,9.2,11.1,64,0.00,,---,0.00,VWS V14.01,2013-01-27 14:07:00,
2013-01-27 09:12:00,21.9,11.5,30.46,NW,314,7.4,10.1,64,0.00,,---,0.00,VWS V14.01,2013-01-27 14:12:00,
2013-01-27 09:17:00,21.8,11.5,30.46,NNW,328,9.4,9.4,64,0.00,,---,0.00,VWS V14.01,2013-01-27 14:17:00,
2013-01-27 09:22:00,21.9,11.4,30.46,NW,318,9.9,12.2,64,0.00,,---,0.00,VWS V14.01,2013-01-27 14:22:00,
2013-01-27 09:27:00,21.9,11.6,30.46,NW,319,9.0,12.1,64,0.00,,---,0.00,VWS V14.01,2013-01-27 14:27:00,
2013-01-27 09:32:00,22.2,11.6,30.46,NNW,335,13.9,18.7,63,0.00,,---,0.00,VWS V14.01,2013-01-27 14:32:00,
2013-01-27 09:37:00,22.3,12.0,30.46,NNW,336,8.3,12.1,64,42.66,,---,0.00,VWS V14.01,2013-01-27 14:37:00,
2013-01-27 09:42:00,23.1,12.2,30.46,NNW,329,12.6,14.3,62,0.00,,---,0.00,VWS V14.01,2013-01-27 14:42:00,
2013-01-27 09:47:00,23.2,12.4,30.46,North,352,9.4,10.7,63,0.00,,---,0.00,VWS V14.01,2013-01-27 14:47:00,
2013-01-27 09:52:00,22.9,11.8,30.46,NW,322,15.3,16.0,62,0.00,,---,0.00,VWS V14.01,2013-01-27 14:52:00,
2013-01-27 09:57:00,23.2,12.4,30.46,NW,321,19.5,19.5,63,0.00,,---,0.00,VWS V14.01,2013-01-27 14:57:00,
2013-01-27 10:02:00,23.6,12.4,30.47,NW,318,13.9,18.6,62,0.00,,---,0.00,VWS V14.01,2013-01-27 15:02:00,
2013-01-27 10:07:00,23.8,12.9,30.47,NW,312,14.3,15.6,63,0.00,,---,0.00,VWS V14.01,2013-01-27 15:07:00,
2013-01-27 10:12:00,23.4,11.9,30.47,NW,325,11.5,16.7,61,0.00,,---,0.00,VWS V14.01,2013-01-27 15:12:00,
2013-01-27 10:17:00,24.3,12.9,30.47,NNW,332,13.1,15.3,61,0.00,,---,0.00,VWS V14.01,2013-01-27 15:17:00,
2013-01-27 10:22:00,24.8,13.2,30.47,NW,315,16.7,16.7,61,0.00,,---,0.00,VWS V14.01,2013-01-27 15:22:00,
2013-01-27 10:27:00,24.9,12.8,30.47,NW,321,15.8,17.0,60,0.00,,---,0.00,VWS V14.01,2013-01-27 15:27:00,
2013-01-27 10:32:00,24.4,13.1,30.47,NNW,330,14.0,15.7,62,0.00,,---,0.00,VWS V14.01,2013-01-27 15:32:00,
2013-01-27 10:37:00,24.9,12.8,30.47,NW,307,10.4,15.3,59,0.00,,---,0.00,VWS V14.01,2013-01-27 15:37:00,
2013-01-27 10:42:00,25.1,12.9,30.47,WNW,290,9.8,17.0,59,0.00,,---,0.00,VWS V14.01,2013-01-27 15:42:00,
2013-01-27 10:47:00,26.0,13.6,30.47,WNW,301,9.4,10.3,59,0.00,,---,0.00,VWS V14.01,2013-01-27 15:47:00,
2013-01-27 10:52:00,25.1,12.1,30.47,NNW,329,14.9,15.2,57,0.00,,---,0.00,VWS V14.01,2013-01-27 15:52:00,
2013-01-27 10:57:00,25.2,12.5,30.46,NW,314,13.0,13.0,58,0.00,,---,0.00,VWS V14.01,2013-01-27 15:57:00,
2013-01-27 11:02:00,25.7,13.0,30.47,NNW,346,12.8,12.8,58,0.00,,---,0.00,VWS V14.01,2013-01-27 16:02:00,
2013-01-27 11:07:00,25.7,12.6,30.47,NW,323,16.6,17.7,57,0.00,,---,0.00,VWS V14.01,2013-01-27 16:07:00,
2013-01-27 11:12:00,26.1,12.5,30.46,NW,314,15.0,15.0,56,0.00,,---,0.00,VWS V14.01,2013-01-27 16:12:00,
2013-01-27 11:17:00,25.8,12.4,30.46,NNW,329,17.8,17.8,56,0.00,,---,0.00,VWS V14.01,2013-01-27 16:17:00,
2013-01-27 11:22:00,26.1,11.9,30.45,NW,321,12.2,15.8,54,0.00,,---,0.00,VWS V14.01,2013-01-27 16:22:00,
2013-01-27 11:27:00,27.2,13.6,30.45,NW,312,11.4,12.7,56,0.00,,---,0.00,VWS V14.01,2013-01-27 16:27:00,
2013-01-27 11:32:00,26.6,12.5,30.45,North,7,14.8,15.6,55,0.00,,---,0.00,VWS V14.01,2013-01-27 16:32:00,
2013-01-27 11:37:00,26.9,12.1,30.45,WNW,297,8.2,9.0,53,0.00,,---,0.00,VWS V14.01,2013-01-27 16:37:00,
2013-01-27 11:41:00,27.0,12.5,30.45,NNW,338,9.3,11.7,54,0.00,,---,0.00,VWS V14.01,2013-01-27 16:41:00,
2013-01-27 11:46:00,27.6,14.2,30.45,NW,319,3.5,4.3,57,0.00,,---,0.00,VWS V14.01,2013-01-27 16:46:00,
2013-01-27 11:51:00,27.3,12.6,30.44,NW,314,7.1,8.4,53,0.00,,---,0.00,VWS V14.01,2013-01-27 16:51:00,
2013-01-27 11:56:00,27.0,12.7,30.44,West,267,4.3,7.1,54,0.00,,---,0.00,VWS V14.01,2013-01-27 16:56:00,
2013-01-27 12:01:00,27.8,13.0,30.44,NNW,333,6.1,8.6,53,0.00,,---,0.00,VWS V14.01,2013-01-27 17:01:00,
2013-01-27 12:06:00,28.1,12.9,30.44,WNW,301,9.6,9.6,52,0.00,,---,0.00,VWS V14.01,2013-01-27 17:06:00,
2013-01-27 12:11:00,27.6,12.8,30.44,NW,311,6.5,6.8,53,0.00,,---,0.00,VWS V14.01,2013-01-27 17:11:00,
2013-01-27 12:16:00,27.4,12.4,30.44,NW,321,8.5,11.1,53,0.00,,---,0.00,VWS V14.01,2013-01-27 17:16:00,
2013-01-27 12:21:00,28.0,13.8,30.43,NW,309,7.6,9.4,55,0.00,,---,0.00,VWS V14.01,2013-01-27 17:21:00,
2013-01-27 12:26:00,28.1,13.1,30.43,NW,321,9.6,9.7,53,0.00,,---,0.00,VWS V14.01,2013-01-27 17:26:00,
2013-01-27 12:31:00,28.1,13.6,30.43,NNW,340,16.0,16.8,54,0.00,,---,0.00,VWS V14.01,2013-01-27 17:31:00,
2013-01-27 12:36:00,28.7,13.8,30.43,WNW,300,12.6,12.9,53,0.00,,---,0.00,VWS V14.01,2013-01-27 17:36:00,
2013-01-27 12:41:00,29.0,13.8,30.42,WNW,301,9.4,9.5,52,0.00,,---,0.00,VWS V14.01,2013-01-27 17:41:00,
2013-01-27 12:46:00,28.7,13.5,30.42,NW,308,12.5,12.5,52,0.00,,---,0.00,VWS V14.01,2013-01-27 17:46:00,
2013-01-27 12:51:00,28.9,13.6,30.42,NNW,336,11.7,11.7,52,0.00,,---,0.00,VWS V14.01,2013-01-27 17:51:00,
2013-01-27 12:56:00,29.3,13.6,30.42,NW,316,7.6,11.9,51,0.00,,---,0.00,VWS V14.01,2013-01-27 17:56:00,
2013-01-27 13:01:00,29.4,13.8,30.41,NW,312,10.7,10.7,52,0.00,,---,0.00,VWS V14.01,2013-01-27 18:01:00,
2013-01-27 13:06:00,29.4,13.3,30.42,WNW,298,8.9,15.0,51,0.00,,---,0.00,VWS V14.01,2013-01-27 18:06:00,
2013-01-27 13:11:00,29.4,13.6,30.42,NW,319,5.6,9.6,51,0.00,,---,0.00,VWS V14.01,2013-01-27 18:11:00,
2013-01-27 13:16:00,29.6,13.5,30.42,West,278,4.3,9.6,50,0.00,,---,0.00,VWS V14.01,2013-01-27 18:16:00,
2013-01-27 13:21:00,29.9,13.4,30.41,NNW,335,12.0,14.1,50,0.00,,---,0.00,VWS V14.01,2013-01-27 18:21:00,
2013-01-27 13:26:00,29.5,13.1,30.41,NNW,335,8.6,12.4,50,0.00,,---,0.00,VWS V14.01,2013-01-27 18:26:00,
2013-01-27 13:31:00,30.1,13.8,30.41,WNW,292,5.3,7.1,50,0.00,,---,0.00,VWS V14.01,2013-01-27 18:31:00,
2013-01-27 13:36:00,30.7,13.2,30.41,West,278,8.7,9.4,48,0.00,,---,0.00,VWS V14.01,2013-01-27 18:36:00,
2013-01-27 13:41:00,30.6,13.1,30.41,WNW,287,9.8,12.4,48,0.00,,---,0.00,VWS V14.01,2013-01-27 18:41:00,
2013-01-27 13:46:00,30.5,12.9,30.41,NNW,332,9.8,10.6,48,0.00,,---,0.00,VWS V14.01,2013-01-27 18:46:00,
2013-01-27 13:51:00,30.5,12.7,30.41,WNW,284,8.3,12.3,47,0.00,,---,0.00,VWS V14.01,2013-01-27 18:51:00,
2013-01-27 13:56:00,30.5,13.2,30.41,WNW,284,4.4,10.9,48,0.00,,---,0.00,VWS V14.01,2013-01-27 18:56:00,
2013-01-27 14:01:00,30.8,13.1,30.41,WNW,285,11.5,11.9,47,0.00,,---,0.00,VWS V14.01,2013-01-27 19:01:00,
2013-01-27 14:06:00,30.9,13.6,30.41,WNW,297,7.3,12.6,48,0.00,,---,0.00,VWS V14.01,2013-01-27 19:06:00,
2013-01-27 14:11:00,31.1,13.0,30.41,WNW,294,7.3,10.4,47,0.00,,---,0.00,VWS V14.01,2013-01-27 19:11:00,
2013-01-27 14:16:00,30.8,12.7,30.41,West,271,8.8,13.5,46,0.00,,---,0.00,VWS V14.01,2013-01-27 19:16:00,
2013-01-27 14:21:00,31.6,13.6,30.41,WNW,283,4.7,7.9,47,0.00,,---,0.00,VWS V14.01,2013-01-27 19:21:00,
2013-01-27 14:26:00,31.8,13.9,30.41,WNW,300,4.2,9.0,47,19.83,,---,0.00,VWS V14.01,2013-01-27 19:26:00,
2013-01-27 14:31:00,31.7,13.7,30.41,NW,325,7.0,8.0,47,0.00,,---,0.00,VWS V14.01,2013-01-27 19:31:00,
2013-01-27 14:36:00,31.7,12.6,30.41,NNW,333,7.1,9.3,45,0.00,,---,0.00,VWS V14.01,2013-01-27 19:36:00,
2013-01-27 14:41:00,32.3,13.7,30.41,NNW,329,3.8,7.8,46,0.00,,---,0.00,VWS V14.01,2013-01-27 19:41:00,
2013-01-27 14:46:00,31.8,13.6,30.41,NW,318,8.1,8.5,46,0.00,,---,0.00,VWS V14.01,2013-01-27 19:46:00,
2013-01-27 14:51:00,31.5,13.1,30.41,WNW,288,9.5,11.0,46,19.83,,---,0.00,VWS V14.01,2013-01-27 19:51:00,
2013-01-27 14:56:00,32.3,14.4,30.40,NNW,330,6.0,6.9,47,0.00,,---,0.00,VWS V14.01,2013-01-27 19:56:00,
2013-01-27 15:01:00,32.2,13.1,30.40,WNW,295,5.8,10.1,45,0.00,,---,0.00,VWS V14.01,2013-01-27 20:01:00,
2013-01-27 15:06:00,31.9,13.0,30.40,NNW,343,6.2,10.0,45,0.00,,---,0.00,VWS V14.01,2013-01-27 20:06:00,
2013-01-27 15:11:00,32.2,13.8,30.41,NW,319,11.5,11.7,46,0.00,,---,0.00,VWS V14.01,2013-01-27 20:11:00,
2013-01-27 15:16:00,31.6,12.8,30.40,WNW,291,9.1,10.9,45,99.99,,---,0.00,VWS V14.01,2013-01-27 20:16:00,
2013-01-27 15:21:00,32.1,13.6,30.41,NW,305,2.2,5.3,46,0.00,,---,0.00,VWS V14.01,2013-01-27 20:21:00,
2013-01-27 15:26:00,32.3,13.9,30.41,NW,319,6.5,8.1,46,0.00,,---,0.00,VWS V14.01,2013-01-27 20:26:00,
2013-01-27 15:31:00,32.3,13.7,30.41,WNW,292,5.6,6.4,46,0.00,,---,0.00,VWS V14.01,2013-01-27 20:31:00,
2013-01-27 15:36:00,32.4,13.1,30.41,NW,315,8.6,9.9,44,0.00,,---,0.00,VWS V14.01,2013-01-27 20:36:00,
2013-01-27 15:41:00,31.8,12.5,30.41,NW,304,8.7,11.3,44,0.00,,---,0.00,VWS V14.01,2013-01-27 20:41:00,
2013-01-27 15:46:00,32.6,13.6,30.41,West,277,7.9,7.9,45,0.00,,---,0.00,VWS V14.01,2013-01-27 20:46:00,
2013-01-27 15:51:00,33.0,13.8,30.42,WNW,288,5.7,6.3,45,0.00,,---,0.00,VWS V14.01,2013-01-27 20:51:00,
2013-01-27 15:56:00,33.3,14.1,30.42,NW,321,8.9,8.9,45,0.00,,---,0.00,VWS V14.01,2013-01-27 20:56:00,
2013-01-27 16:01:00,32.5,13.1,30.42,WNW,285,6.5,8.0,44,0.00,,---,0.00,VWS V14.01,2013-01-27 21:01:00,
2013-01-27 16:06:00,32.4,13.1,30.41,WNW,284,7.9,9.8,44,0.00,,---,0.00,VWS V14.01,2013-01-27 21:06:00,
2013-01-27 16:11:00,32.5,13.1,30.42,West,277,10.7,11.4,44,0.00,,---,0.00,VWS V14.01,2013-01-27 21:11:00,
2013-01-27 16:16:00,31.9,12.4,30.42,West,280,9.1,11.1,44,0.00,,---,0.00,VWS V14.01,2013-01-27 21:16:00,
2013-01-27 16:21:00,31.8,12.7,30.42,West,273,4.0,6.0,45,0.00,,---,0.00,VWS V14.01,2013-01-27 21:21:00,
2013-01-27 16:26:00,32.2,13.2,30.42,WNW,298,5.1,7.5,45,0.00,,---,0.00,VWS V14.01,2013-01-27 21:26:00,
2013-01-27 16:31:00,32.1,13.2,30.42,NW,308,8.1,10.4,45,0.00,,---,0.00,VWS V14.01,2013-01-27 21:31:00,
2013-01-27 16:36:00,32.1,13.1,30.41,West,278,4.5,10.2,45,0.00,,---,0.00,VWS V14.01,2013-01-27 21:36:00,
2013-01-27 16:41:00,32.5,13.5,30.41,West,281,3.8,7.5,45,0.00,,---,0.00,VWS V14.01,2013-01-27 21:41:00,
2013-01-27 16:46:00,31.9,13.1,30.42,WNW,287,5.0,6.0,45,0.00,,---,0.00,VWS V14.01,2013-01-27 21:46:00,
2013-01-27 16:51:00,32.3,13.6,30.42,WNW,285,1.6,5.9,46,0.00,,---,0.00,VWS V14.01,2013-01-27 21:51:00,
2013-01-27 16:56:00,32.0,13.7,30.42,West,264,1.3,4.8,46,0.00,,---,0.00,VWS V14.01,2013-01-27 21:56:00,
2013-01-27 17:01:00,32.0,14.1,30.42,WNW,288,4.3,5.1,47,0.00,,---,0.00,VWS V14.01,2013-01-27 22:01:00,
2013-01-27 17:06:00,31.5,13.8,30.43,WNW,291,2.4,3.0,47,0.00,,---,0.00,VWS V14.01,2013-01-27 22:06:00,
2013-01-27 17:11:00,32.0,14.4,30.43,NW,308,2.8,4.0,48,0.00,,---,0.00,VWS V14.01,2013-01-27 22:11:00,
2013-01-27 17:16:00,31.7,14.2,30.43,West,281,0.0,0.0,48,0.00,,---,0.00,VWS V14.01,2013-01-27 22:16:00,
2013-01-27 17:21:00,32.1,14.6,30.43,NW,316,4.4,6.3,48,0.00,,---,0.00,VWS V14.01,2013-01-27 22:21:00,
2013-01-27 17:26:00,31.2,13.8,30.44,NW,314,2.8,4.2,48,0.00,,---,0.00,VWS V14.01,2013-01-27 22:26:00,
2013-01-27 17:31:00,31.3,13.9,30.44,NW,311,0.0,0.0,48,0.00,,---,0.00,VWS V14.01,2013-01-27 22:31:00,
2013-01-27 17:36:00,31.7,14.3,30.44,NW,311,0.0,0.0,48,0.00,,---,0.00,VWS V14.01,2013-01-27 22:36:00,
2013-01-27 17:41:00,31.4,14.2,30.44,NW,311,0.0,0.0,48,0.00,,---,0.00,VWS V14.01,2013-01-27 22:41:00,
2013-01-27 17:46:00,31.4,14.2,30.44,NW,311,0.0,0.0,48,0.00,,---,0.00,VWS V14.01,2013-01-27 22:46:00,
2013-01-27 17:51:00,31.0,13.9,30.44,NW,311,0.0,0.0,49,0.00,,---,0.00,VWS V14.01,2013-01-27 22:51:00,
2013-01-27 17:56:00,31.2,14.3,30.45,NW,311,0.0,0.0,49,0.00,,---,0.00,VWS V14.01,2013-01-27 22:56:00,
2013-01-27 18:01:00,31.2,14.5,30.45,NW,311,0.0,0.0,50,0.00,,---,0.00,VWS V14.01,2013-01-27 23:01:00,
2013-01-27 18:06:00,30.8,14.4,30.45,West,278,0.0,0.0,50,0.00,,---,0.00,VWS V14.01,2013-01-27 23:06:00,
2013-01-27 18:11:00,30.5,14.2,30.45,West,276,4.7,4.7,50,0.00,,---,0.00,VWS V14.01,2013-01-27 23:11:00,
2013-01-27 18:16:00,31.1,14.8,30.44,WSW,243,3.5,4.2,50,0.00,,---,0.00,VWS V14.01,2013-01-27 23:16:00,
2013-01-27 18:21:00,30.8,14.7,30.45,West,266,0.0,0.0,51,0.00,,---,0.00,VWS V14.01,2013-01-27 23:21:00,
2013-01-27 18:26:00,30.2,14.3,30.45,West,259,3.5,3.5,51,0.00,,---,0.00,VWS V14.01,2013-01-27 23:26:00,
2013-01-27 18:31:00,30.5,14.8,30.45,West,259,0.2,2.5,52,0.00,,---,0.00,VWS V14.01,2013-01-27 23:31:00,
2013-01-27 18:36:00,30.5,14.9,30.45,West,267,0.0,0.0,52,0.00,,---,0.00,VWS V14.01,2013-01-27 23:36:00,
2013-01-27 18:41:00,30.3,14.9,30.44,West,267,0.0,0.0,52,0.00,,---,0.00,VWS V14.01,2013-01-27 23:41:00,
2013-01-27 18:46:00,30.3,15.0,30.44,WNW,290,0.0,0.0,52,0.00,,---,0.00,VWS V14.01,2013-01-27 23:46:00,
2013-01-27 18:51:00,30.0,14.8,30.45,WNW,290,0.0,0.0,53,35.54,,---,0.00,VWS V14.01,2013-01-27 23:51:00,
2013-01-27 18:56:00,29.9,14.8,30.45,WNW,290,0.0,0.0,53,0.00,,---,0.00,VWS V14.01,2013-01-27 23:56:00,
2013-01-27 19:01:00,29.5,14.5,30.45,WNW,290,0.0,0.0,53,0.00,,---,0.00,VWS V14.01,2013-01-28 00:01:00,
2013-01-27 19:06:00,30.2,15.3,30.45,WNW,290,0.0,0.0,53,0.00,,---,0.00,VWS V14.01,2013-01-28 00:06:00,
2013-01-27 19:11:00,29.7,14.8,30.45,WNW,290,0.0,0.0,53,0.00,,---,0.00,VWS V14.01,2013-01-28 00:11:00,
2013-01-27 19:16:00,29.9,15.1,30.45,WNW,290,0.0,0.0,54,0.00,,---,0.00,VWS V14.01,2013-01-28 00:16:00,
2013-01-27 19:21:00,29.7,14.9,30.45,WNW,290,0.0,0.0,54,0.00,,---,0.00,VWS V14.01,2013-01-28 00:21:00,
2013-01-27 19:26:00,29.2,14.6,30.45,WNW,290,0.0,0.0,54,0.00,,---,0.00,VWS V14.01,2013-01-28 00:26:00,
2013-01-27 19:28:00,29.4,15.2,30.45,WNW,290,0.0,0.0,55,0.00,,---,0.00,VWS V14.01,2013-01-28 00:28:00,
2013-01-27 19:31:00,29.4,15.0,30.45,WNW,290,0.0,0.0,54,0.00,,---,0.00,VWS V14.01,2013-01-28 00:31:00,
2013-01-27 19:36:00,29.2,15.0,30.45,WNW,290,0.0,0.0,55,0.00,,---,0.00,VWS V14.01,2013-01-28 00:36:00,
2013-01-27 19:41:00,29.0,14.9,30.45,WNW,290,0.0,0.0,55,0.00,,---,0.00,VWS V14.01,2013-01-28 00:41:00,
2013-01-27 19:45:00,28.9,14.8,30.44,WNW,290,0.0,0.0,55,0.00,,---,0.00,VWS V14.01,2013-01-28 00:45:00,
2013-01-27 19:50:00,28.9,14.9,30.44,WNW,290,0.0,0.0,55,0.00,,---,0.00,VWS V14.01,2013-01-28 00:50:00,
2013-01-27 19:55:00,29.0,15.0,30.44,WNW,290,0.0,0.0,55,0.00,,---,0.00,VWS V14.01,2013-01-28 00:55:00,
2013-01-27 20:00:00,28.5,14.7,30.44,WNW,290,0.0,0.0,56,0.00,,---,0.00,VWS V14.01,2013-01-28 01:00:00,
2013-01-27 20:05:00,28.0,14.5,30.44,WNW,290,0.0,0.0,56,0.00,,---,0.00,VWS V14.01,2013-01-28 01:05:00,
2013-01-27 20:10:00,28.0,14.8,30.44,WNW,290,0.0,0.0,57,0.00,,---,0.00,VWS V14.01,2013-01-28 01:10:00,
2013-01-27 20:15:00,28.0,14.8,30.44,WNW,290,0.0,0.0,57,0.00,,---,0.00,VWS V14.01,2013-01-28 01:15:00,
2013-01-27 20:20:00,27.7,14.6,30.44,WSW,248,0.0,0.0,57,0.00,,---,0.00,VWS V14.01,2013-01-28 01:20:00,
2013-01-27 20:25:00,27.4,14.3,30.44,WSW,252,2.1,2.1,57,0.00,,---,0.00,VWS V14.01,2013-01-28 01:25:00,
2013-01-27 20:30:00,27.5,14.5,30.44,West,273,1.9,1.9,58,0.00,,---,0.00,VWS V14.01,2013-01-28 01:30:00,
2013-01-27 20:35:00,27.9,14.9,30.44,ESE,117,0.0,0.0,58,0.00,,---,0.00,VWS V14.01,2013-01-28 01:35:00,
2013-01-27 20:40:00,28.0,15.0,30.44,ESE,117,0.0,0.0,58,69.49,,---,0.00,VWS V14.01,2013-01-28 01:40:00,
2013-01-27 20:45:00,27.8,15.0,30.44,ESE,117,0.0,0.0,58,0.00,,---,0.00,VWS V14.01,2013-01-28 01:45:00,
2013-01-27 20:50:00,27.8,15.1,30.44,ESE,117,0.0,0.0,58,0.00,,---,0.00,VWS V14.01,2013-01-28 01:50:00,
2013-01-27 20:55:00,27.7,15.1,30.44,ESE,117,0.0,0.0,58,0.00,,---,0.00,VWS V14.01,2013-01-28 01:55:00,
2013-01-27 21:00:00,27.4,14.8,30.45,ESE,117,0.0,0.0,59,0.00,,---,0.00,VWS V14.01,2013-01-28 02:00:00,
2013-01-27 21:05:00,27.6,15.0,30.45,ESE,117,0.0,0.0,59,4.41,,---,0.00,VWS V14.01,2013-01-28 02:05:00,
2013-01-27 21:10:00,27.4,14.9,30.45,ESE,117,0.0,0.0,59,0.00,,---,0.00,VWS V14.01,2013-01-28 02:10:00,
2013-01-27 21:15:00,27.2,14.9,30.46,WNW,292,2.6,3.4,59,0.00,,---,0.00,VWS V14.01,2013-01-28 02:15:00,
2013-01-27 21:20:00,27.6,15.2,30.45,WNW,290,0.0,0.0,59,0.00,,---,0.00,VWS V14.01,2013-01-28 02:20:00,
2013-01-27 21:25:00,27.2,14.8,30.45,WNW,290,0.0,0.0,59,0.00,,---,0.00,VWS V14.01,2013-01-28 02:25:00,
2013-01-27 21:30:00,27.2,14.9,30.45,WNW,290,0.0,0.0,59,0.00,,---,0.00,VWS V14.01,2013-01-28 02:30:00,
2013-01-27 21:35:00,27.1,15.0,30.46,WNW,290,0.0,0.0,60,0.00,,---,0.00,VWS V14.01,2013-01-28 02:35:00,
2013-01-27 21:40:00,26.9,14.9,30.46,WNW,290,0.0,0.0,60,0.00,,---,0.00,VWS V14.01,2013-01-28 02:40:00,
2013-01-27 21:45:00,26.5,14.4,30.45,WNW,290,0.0,0.0,60,0.00,,---,0.00,VWS V14.01,2013-01-28 02:45:00,
2013-01-27 21:50:00,26.8,14.7,30.45,WNW,290,0.0,0.0,60,0.00,,---,0.00,VWS V14.01,2013-01-28 02:50:00,
2013-01-27 21:55:00,26.7,14.9,30.45,WNW,290,0.0,0.0,60,0.00,,---,0.00,VWS V14.01,2013-01-28 02:55:00,
2013-01-27 22:00:00,26.3,14.5,30.45,WNW,290,0.0,0.0,61,0.00,,---,0.00,VWS V14.01,2013-01-28 03:00:00,
2013-01-27 22:05:00,26.3,14.6,30.44,WNW,290,0.0,0.0,61,0.00,,---,0.00,VWS V14.01,2013-01-28 03:05:00,
2013-01-27 22:10:00,26.2,14.6,30.44,WNW,290,0.0,0.0,61,0.00,,---,0.00,VWS V14.01,2013-01-28 03:10:00,
2013-01-27 22:15:00,26.5,14.9,30.44,WNW,290,0.0,0.0,61,0.00,,---,0.00,VWS V14.01,2013-01-28 03:15:00,
2013-01-27 22:20:00,25.7,14.2,30.44,WNW,290,0.0,0.0,61,35.69,,---,0.00,VWS V14.01,2013-01-28 03:20:00,
2013-01-27 22:25:00,25.8,14.4,30.44,WNW,290,0.0,0.0,62,0.00,,---,0.00,VWS V14.01,2013-01-28 03:25:00,
2013-01-27 22:30:00,25.9,14.5,30.44,WNW,290,0.0,0.0,62,0.00,,---,0.00,VWS V14.01,2013-01-28 03:30:00,
2013-01-27 22:35:00,25.7,14.6,30.44,WNW,290,0.0,0.0,62,15.31,,---,0.00,VWS V14.01,2013-01-28 03:35:00,
2013-01-27 22:40:00,25.2,14.2,30.44,WNW,290,0.0,0.0,62,0.00,,---,0.00,VWS V14.01,2013-01-28 03:40:00,
2013-01-27 22:45:00,25.6,14.6,30.44,WNW,290,0.0,0.0,62,0.00,,---,0.00,VWS V14.01,2013-01-28 03:45:00,
2013-01-27 22:50:00,25.4,14.4,30.44,WNW,290,0.0,0.0,62,0.00,,---,0.00,VWS V14.01,2013-01-28 03:50:00,
2013-01-27 22:55:00,25.0,14.2,30.44,WNW,290,0.0,0.0,63,0.00,,---,0.00,VWS V14.01,2013-01-28 03:55:00,
2013-01-27 23:00:00,25.4,14.6,30.44,WNW,290,0.0,0.0,63,0.00,,---,0.00,VWS V14.01,2013-01-28 04:00:00,
2013-01-27 23:05:00,24.8,14.1,30.44,WNW,290,0.0,0.0,63,0.00,,---,0.00,VWS V14.01,2013-01-28 04:05:00,
2013-01-27 23:10:00,24.4,13.8,30.44,WNW,290,0.0,0.0,63,0.00,,---,0.00,VWS V14.01,2013-01-28 04:10:00,
2013-01-27 23:15:00,24.9,14.4,30.44,WNW,290,0.0,0.0,64,0.00,,---,0.00,VWS V14.01,2013-01-28 04:15:00,
2013-01-27 23:20:00,24.5,14.1,30.44,WNW,290,0.0,0.0,64,0.00,,---,0.00,VWS V14.01,2013-01-28 04:20:00,
2013-01-27 23:25:00,24.4,13.9,30.43,WNW,290,0.0,0.0,64,0.00,,---,0.00,VWS V14.01,2013-01-28 04:25:00,
2013-01-27 23:28:00,23.7,13.5,30.43,WNW,290,0.0,0.0,64,0.00,,---,0.00,VWS V14.01,2013-01-28 04:28:00,
2013-01-27 23:30:00,24.1,13.7,30.44,WNW,290,0.0,0.0,64,0.00,,---,0.00,VWS V14.01,2013-01-28 04:30:00,
2013-01-27 23:35:00,24.0,13.6,30.43,WNW,290,0.0,0.0,64,0.00,,---,0.00,VWS V14.01,2013-01-28 04:35:00,
2013-01-27 23:40:00,24.2,13.9,30.43,WNW,290,0.0,0.0,64,0.00,,---,0.00,VWS V14.01,2013-01-28 04:40:00,
2013-01-27 23:45:00,23.6,13.7,30.44,WNW,290,0.0,0.0,65,0.00,,---,0.00,VWS V14.01,2013-01-28 04:45:00,
2013-01-27 23:50:00,23.6,13.9,30.44,SE,127,1.9,2.1,66,0.00,,---,0.00,VWS V14.01,2013-01-28 04:50:00,
2013-01-27 23:55:00,23.5,13.7,30.44,WSW,248,0.0,0.0,66,0.00,,---,0.00,VWS V14.01,2013-01-28 04:55:00,